Time;durP1;ratioP1;P1;durP2;ratioP2;P2;SDS_P1;SDS_P2;PMS_P1;PMS_P2;Temp;Humidity;BMP_temperature;BMP_pressure;BME280_temperature;BME280_humidity;BME280_pressure;Samples;Min_cycle;Max_cycle;Signal;HPM_P1;HPM_P2
2022/03/14 00:02:08;;;;;;;1.23;1.13;;;14.00;60.70;;;;;;5093226;28;20027;-31
2022/03/14 00:04:36;;;;;;;1.25;1.10;;;13.90;60.70;;;;;;5093105;28;20106;-31
2022/03/14 00:07:01;;;;;;;1.48;1.30;;;13.90;60.60;;;;;;5093443;28;20032;-32
2022/03/14 00:09:27;;;;;;;1.30;1.10;;;13.90;60.70;;;;;;5074859;28;20499;-32
2022/03/14 00:11:55;;;;;;;1.17;1.08;;;13.90;60.70;;;;;;5092978;28;20024;-32
2022/03/14 00:14:22;;;;;;;1.30;1.00;;;13.90;60.70;;;;;;5093040;28;20052;-31
2022/03/14 00:16:47;;;;;;;1.15;1.05;;;13.80;60.80;;;;;;5092846;28;20024;-31
2022/03/14 00:19:14;;;;;;;1.17;1.08;;;13.80;60.80;;;;;;5093079;28;20036;-31
2022/03/14 00:21:40;;;;;;;1.00;0.93;;;13.80;60.90;;;;;;5093256;28;20421;-34
2022/03/14 00:24:08;;;;;;;1.00;0.90;;;13.80;61.20;;;;;;5093123;28;20476;-30
2022/03/14 00:26:34;;;;;;;1.30;1.10;;;13.80;61.00;;;;;;5092968;28;20028;-35
2022/03/14 00:29:00;;;;;;;1.58;1.00;;;13.70;60.90;;;;;;5093025;28;20030;-33
2022/03/14 00:31:25;;;;;;;1.98;0.90;;;13.70;61.00;;;;;;5093120;28;20517;-32
2022/03/14 00:33:52;;;;;;;0.80;0.80;;;13.70;60.90;;;;;;5092725;28;20521;-30
2022/03/14 00:36:19;;;;;;;1.02;0.95;;;13.70;60.90;;;;;;5092807;28;20065;-31
2022/03/14 00:38:45;;;;;;;1.05;0.93;;;13.70;61.00;;;;;;5092972;28;20024;-30
2022/03/14 00:41:12;;;;;;;1.02;0.95;;;13.70;61.00;;;;;;5092779;28;20028;-30
2022/03/14 00:43:38;;;;;;;0.88;0.88;;;13.70;61.10;;;;;;5092651;28;20032;-31
2022/03/14 00:46:04;;;;;;;1.00;0.90;;;13.70;61.20;;;;;;5092934;28;20169;-34
2022/03/14 00:48:32;;;;;;;1.08;0.98;;;13.70;61.30;;;;;;5092803;28;20024;-33
2022/03/14 00:50:58;;;;;;;0.73;0.70;;;13.70;61.20;;;;;;5092639;28;20028;-35
2022/03/14 00:53:24;;;;;;;0.85;0.85;;;13.60;61.20;;;;;;5092827;28;20016;-30
2022/03/14 00:55:50;;;;;;;1.23;1.02;;;13.60;61.20;;;;;;5092500;28;20043;-34
2022/03/14 00:58:16;;;;;;;0.98;0.85;;;13.60;61.30;;;;;;5092639;28;20024;-30
2022/03/14 01:00:41;;;;;;;0.80;0.80;;;13.60;61.30;;;;;;5092870;28;20020;-31
2022/03/14 01:03:07;;;;;;;0.82;0.82;;;13.60;61.30;;;;;;5096748;28;20388;-32
2022/03/14 01:05:32;;;;;;;0.95;0.90;;;13.60;61.30;;;;;;5096622;28;20077;-36
2022/03/14 01:07:58;;;;;;;0.85;0.85;;;13.60;61.30;;;;;;5096724;28;20035;-30
2022/03/14 01:10:24;;;;;;;0.80;0.80;;;13.60;61.40;;;;;;5096570;28;20031;-31
2022/03/14 01:12:50;;;;;;;1.10;1.00;;;13.60;61.50;;;;;;5096492;28;20028;-33
2022/03/14 01:15:16;;;;;;;0.90;0.90;;;13.60;61.70;;;;;;5096623;28;20510;-30
2022/03/14 01:17:41;;;;;;;1.17;0.98;;;13.50;61.80;;;;;;5096385;28;20031;-30
2022/03/14 01:20:08;;;;;;;1.90;1.10;;;13.50;61.80;;;;;;5096387;28;20027;-30
2022/03/14 01:22:35;;;;;;;1.88;1.20;;;13.50;62.00;;;;;;5096264;28;20037;-31
2022/03/14 01:25:02;;;;;;;1.20;1.10;;;13.50;62.00;;;;;;5077927;28;20325;-31
2022/03/14 01:27:27;;;;;;;1.75;1.20;;;13.50;62.20;;;;;;5096363;28;20027;-31
2022/03/14 01:29:53;;;;;;;1.20;1.10;;;13.40;62.30;;;;;;5096031;28;20403;-32
2022/03/14 01:32:19;;;;;;;1.55;1.45;;;13.40;62.30;;;;;;5096083;28;20027;-33
2022/03/14 01:34:44;;;;;;;1.10;1.00;;;13.40;62.40;;;;;;5096132;28;20024;-31
2022/03/14 01:37:10;;;;;;;1.27;1.08;;;13.40;62.50;;;;;;5096063;28;20082;-30
2022/03/14 01:39:36;;;;;;;0.88;0.88;;;13.40;62.50;;;;;;5095953;28;20035;-32
2022/03/14 01:42:02;;;;;;;1.05;0.95;;;13.40;62.60;;;;;;5096085;28;20029;-31
2022/03/14 01:44:28;;;;;;;1.20;1.10;;;13.40;62.60;;;;;;5095921;28;20047;-34
2022/03/14 01:46:54;;;;;;;1.17;1.08;;;13.40;62.70;;;;;;5095783;28;20397;-31
2022/03/14 01:49:20;;;;;;;1.38;1.00;;;13.40;62.70;;;;;;5095648;28;20038;-31
2022/03/14 01:51:46;;;;;;;1.40;1.30;;;13.40;62.70;;;;;;5095648;28;20020;-31
2022/03/14 01:54:11;;;;;;;1.30;1.00;;;13.40;62.90;;;;;;5095897;28;20027;-31
2022/03/14 01:56:39;;;;;;;1.27;1.17;;;13.40;62.90;;;;;;5095377;28;20045;-36
2022/03/14 01:59:06;;;;;;;1.10;1.00;;;13.30;62.90;;;;;;5095761;28;20462;-32
2022/03/14 02:01:34;;;;;;;1.63;1.30;;;13.30;63.00;;;;;;5095461;28;20063;-31
2022/03/14 02:04:00;;;;;;;1.38;0.95;;;13.30;63.10;;;;;;5095468;28;20028;-31
2022/03/14 02:06:27;;;;;;;1.55;1.30;;;13.30;63.20;;;;;;5095563;28;20080;-32
2022/03/14 02:08:54;;;;;;;1.65;1.23;;;13.20;63.30;;;;;;5095503;28;20032;-32
2022/03/14 02:11:19;;;;;;;1.40;1.30;;;13.20;63.40;;;;;;5095354;28;20024;-31
2022/03/14 02:13:45;;;;;;;1.50;1.40;;;13.20;63.50;;;;;;5094197;28;20591;-35
2022/03/14 02:16:11;;;;;;;1.63;1.52;;;13.20;63.50;;;;;;5095272;28;20056;-32
2022/03/14 02:18:36;;;;;;;1.50;1.40;;;13.20;63.70;;;;;;5095253;28;20408;-31
2022/03/14 02:21:02;;;;;;;2.08;1.40;;;13.20;63.80;;;;;;5095286;28;20024;-32
2022/03/14 02:23:28;;;;;;;1.40;1.30;;;13.20;63.80;;;;;;5095168;28;20028;-37
2022/03/14 02:25:55;;;;;;;1.45;1.30;;;13.20;63.90;;;;;;5095084;28;20030;-32
2022/03/14 02:28:22;;;;;;;1.75;1.50;;;13.20;63.90;;;;;;5094915;28;20042;-33
2022/03/14 02:30:51;;;;;;;1.65;1.40;;;13.20;63.90;;;;;;5095273;28;20032;-31
2022/03/14 02:33:17;;;;;;;1.60;1.50;;;13.20;64.00;;;;;;5094906;28;20050;-31
2022/03/14 02:35:43;;;;;;;2.00;1.23;;;13.20;63.90;;;;;;5094885;28;20024;-31
2022/03/14 02:38:15;;;;;;;1.63;1.50;;;13.10;64.00;;;;;;5095148;28;20506;-32
2022/03/14 02:40:46;;;;;;;1.67;1.50;;;13.10;64.80;;;;;;5095037;28;20035;-31
2022/03/14 02:43:15;;;;;;;1.77;1.55;;;13.10;64.60;;;;;;5094711;28;20157;-32
2022/03/14 02:45:41;;;;;;;1.90;1.58;;;13.10;64.60;;;;;;5094628;28;20020;-31
2022/03/14 02:48:07;;;;;;;1.60;1.45;;;13.10;64.60;;;;;;5094580;28;20032;-32
2022/03/14 02:50:34;;;;;;;1.40;1.30;;;13.00;64.60;;;;;;5094882;28;20380;-35
2022/03/14 02:53:00;;;;;;;2.35;1.50;;;13.00;64.60;;;;;;5094879;28;20426;-31
2022/03/14 02:55:26;;;;;;;1.77;1.50;;;13.10;64.60;;;;;;5094455;28;20044;-34
2022/03/14 02:57:52;;;;;;;1.77;1.60;;;13.10;64.70;;;;;;5094741;28;20024;-32
2022/03/14 03:00:18;;;;;;;1.60;1.50;;;13.00;64.80;;;;;;5076287;28;20027;-35
2022/03/14 03:02:44;;;;;;;2.00;1.67;;;13.00;64.90;;;;;;5094427;28;20024;-31
2022/03/14 03:05:10;;;;;;;1.92;1.73;;;13.00;65.00;;;;;;5076195;28;20027;-31
2022/03/14 03:07:37;;;;;;;2.17;1.70;;;13.00;65.10;;;;;;5094359;28;20103;-30
2022/03/14 03:10:04;;;;;;;1.70;1.60;;;13.00;65.20;;;;;;5094499;28;20413;-31
2022/03/14 03:12:32;;;;;;;1.67;1.55;;;13.00;65.30;;;;;;5094169;28;20047;-34
2022/03/14 03:14:58;;;;;;;2.00;1.50;;;13.00;65.60;;;;;;5094207;28;20498;-32
2022/03/14 03:17:24;;;;;;;1.70;1.60;;;13.00;65.80;;;;;;5075976;28;20020;-33
2022/03/14 03:19:50;;;;;;;1.50;1.40;;;12.90;66.00;;;;;;5094036;28;20081;-31
2022/03/14 03:22:16;;;;;;;1.92;1.80;;;12.90;66.30;;;;;;5094086;28;20024;-32
2022/03/14 03:24:41;;;;;;;3.22;1.67;;;12.90;66.50;;;;;;5093515;28;20425;-30
2022/03/14 03:27:07;;;;;;;1.85;1.73;;;12.80;66.60;;;;;;5094054;28;20028;-30
2022/03/14 03:29:32;;;;;;;3.13;1.80;;;12.80;66.90;;;;;;5093789;28;20404;-31
2022/03/14 03:31:58;;;;;;;2.25;1.83;;;12.70;67.00;;;;;;5093793;28;20024;-32
2022/03/14 03:34:23;;;;;;;1.77;1.63;;;12.70;67.10;;;;;;5094216;28;20020;-34
2022/03/14 03:36:49;;;;;;;1.75;1.65;;;12.70;67.20;;;;;;5093795;28;20024;-33
2022/03/14 03:39:14;;;;;;;2.00;1.75;;;12.70;67.30;;;;;;5094030;28;20020;-31
2022/03/14 03:41:40;;;;;;;2.13;1.80;;;12.70;67.30;;;;;;5093683;28;20024;-32
2022/03/14 03:44:07;;;;;;;2.38;1.85;;;12.70;67.50;;;;;;5093752;28;20540;-36
2022/03/14 03:46:32;;;;;;;4.00;2.40;;;12.70;67.60;;;;;;5093574;28;20024;-31
2022/03/14 03:48:58;;;;;;;1.85;1.70;;;12.70;67.70;;;;;;5093533;28;20089;-34
2022/03/14 03:51:23;;;;;;;2.05;1.70;;;12.70;67.80;;;;;;5093891;28;20114;-33
2022/03/14 03:53:49;;;;;;;1.70;1.60;;;12.70;67.90;;;;;;5075328;28;20115;-31
2022/03/14 03:56:15;;;;;;;2.20;1.73;;;12.70;67.90;;;;;;5093401;28;20048;-31
2022/03/14 03:58:41;;;;;;;2.03;1.90;;;12.70;68.00;;;;;;5093526;28;20020;-33
2022/03/14 04:01:07;;;;;;;2.10;1.90;;;12.70;68.00;;;;;;5075236;28;20027;-34
2022/03/14 04:03:34;;;;;;;1.75;1.65;;;12.70;68.20;;;;;;5093567;28;20384;-34
2022/03/14 04:06:00;;;;;;;1.85;1.70;;;12.70;68.30;;;;;;5093355;28;20016;-31
2022/03/14 04:08:29;;;;;;;2.08;1.80;;;12.60;68.30;;;;;;5093242;28;20395;-32
2022/03/14 04:10:55;;;;;;;2.20;2.00;;;12.60;68.40;;;;;;5093278;28;20020;-31
2022/03/14 04:13:24;;;;;;;2.28;1.92;;;12.60;68.60;;;;;;5093465;28;20016;-31
2022/03/14 04:15:51;;;;;;;3.95;1.85;;;12.60;68.70;;;;;;5093149;28;20414;-31
2022/03/14 04:18:18;;;;;;;1.90;1.80;;;12.50;68.70;;;;;;5093149;28;20028;-32
2022/03/14 04:20:47;;;;;;;2.45;1.52;;;12.50;68.80;;;;;;5093364;28;20024;-32
2022/03/14 04:23:13;;;;;;;2.30;2.00;;;12.50;68.90;;;;;;5093307;28;20487;-31
2022/03/14 04:25:39;;;;;;;2.00;1.80;;;12.50;69.00;;;;;;5093255;28;20024;-33
2022/03/14 04:28:05;;;;;;;1.88;1.75;;;12.50;69.00;;;;;;5093006;28;20107;-38
2022/03/14 04:30:31;;;;;;;2.10;1.90;;;12.50;69.10;;;;;;5092880;28;20077;-33
2022/03/14 04:32:56;;;;;;;1.80;1.70;;;12.50;69.20;;;;;;5092889;28;20056;-31
2022/03/14 04:35:22;;;;;;;2.40;1.60;;;12.50;69.20;;;;;;5092260;28;20024;-31
2022/03/14 04:37:47;;;;;;;2.17;1.80;;;12.50;69.30;;;;;;5093093;28;20016;-36
2022/03/14 04:40:14;;;;;;;1.98;1.73;;;12.40;69.30;;;;;;5092982;28;20020;-31
2022/03/14 04:42:40;;;;;;;1.80;1.70;;;12.40;69.30;;;;;;5092791;28;20031;-31
2022/03/14 04:45:06;;;;;;;2.03;1.83;;;12.50;69.40;;;;;;5092812;28;20467;-31
2022/03/14 04:47:32;;;;;;;2.17;1.85;;;12.50;69.50;;;;;;5092863;28;20047;-31
2022/03/14 04:49:58;;;;;;;2.22;2.00;;;12.50;69.60;;;;;;5092732;28;20027;-37
2022/03/14 04:52:24;;;;;;;2.55;2.08;;;12.50;69.60;;;;;;5093073;28;20456;-31
2022/03/14 04:54:50;;;;;;;2.30;2.05;;;12.50;69.60;;;;;;5092703;28;20471;-32
2022/03/14 04:57:15;;;;;;;2.13;1.92;;;12.50;69.60;;;;;;5092775;28;20052;-31
2022/03/14 04:59:41;;;;;;;2.40;2.20;;;12.50;69.70;;;;;;5092697;28;20024;-35
2022/03/14 05:02:07;;;;;;;2.22;2.03;;;12.50;69.80;;;;;;5092633;28;20073;-32
2022/03/14 05:04:33;;;;;;;3.15;2.10;;;12.40;69.80;;;;;;5092200;28;20515;-31
2022/03/14 05:06:59;;;;;;;2.85;2.17;;;12.40;69.80;;;;;;5092660;28;20024;-31
2022/03/14 05:09:25;;;;;;;2.17;1.98;;;12.40;69.90;;;;;;5092821;28;20039;-37
2022/03/14 05:11:51;;;;;;;2.33;2.10;;;12.40;70.00;;;;;;5092843;28;20025;-34
2022/03/14 05:14:16;;;;;;;2.70;2.50;;;12.40;70.20;;;;;;5092613;28;20035;-34
2022/03/14 05:16:43;;;;;;;3.13;2.60;;;12.20;70.80;;;;;;5092500;28;20070;-33
2022/03/14 05:19:08;;;;;;;3.17;2.88;;;12.10;71.40;;;;;;5092795;28;20039;-31
2022/03/14 05:21:34;;;;;;;4.28;2.80;;;11.90;72.50;;;;;;5092436;28;20042;-35
2022/03/14 05:24:00;;;;;;;3.30;3.00;;;11.80;72.40;;;;;;5092732;28;20552;-32
2022/03/14 05:26:25;;;;;;;3.05;2.78;;;11.70;72.90;;;;;;5092513;28;20031;-32
2022/03/14 05:28:51;;;;;;;3.00;2.70;;;11.60;73.20;;;;;;5092328;28;20059;-32
2022/03/14 05:31:17;;;;;;;3.55;2.90;;;11.60;73.40;;;;;;5092750;28;20055;-35
2022/03/14 05:33:42;;;;;;;2.90;2.65;;;11.60;73.80;;;;;;5092488;28;20016;-36
2022/03/14 05:36:08;;;;;;;3.40;3.10;;;11.50;74.10;;;;;;5092251;28;20097;-31
2022/03/14 05:38:34;;;;;;;3.53;3.22;;;11.50;74.50;;;;;;5092271;28;20426;-32
2022/03/14 05:40:59;;;;;;;3.42;3.13;;;11.50;74.60;;;;;;5092299;28;20109;-34
2022/03/14 05:43:27;;;;;;;3.10;2.80;;;11.40;74.70;;;;;;5092595;28;20028;-37
2022/03/14 05:45:53;;;;;;;4.57;4.10;;;11.40;74.90;;;;;;5092513;28;20536;-35
2022/03/14 05:48:19;;;;;;;5.75;3.72;;;11.40;75.10;;;;;;5094984;28;20028;-32
2022/03/14 05:50:45;;;;;;;4.75;4.25;;;11.40;75.20;;;;;;5077707;28;20024;-34
2022/03/14 05:53:12;;;;;;;4.57;4.18;;;11.30;75.10;;;;;;5095825;28;20027;-36
2022/03/14 05:55:39;;;;;;;5.25;4.75;;;11.30;75.30;;;;;;5095557;28;20149;-32
2022/03/14 05:58:06;;;;;;;5.70;5.20;;;11.40;75.30;;;;;;5095846;28;20024;-34
2022/03/14 06:00:32;;;;;;;5.93;5.32;;;11.30;75.30;;;;;;5095926;28;20024;-34
2022/03/14 06:02:58;;;;;;;5.65;5.13;;;11.40;75.50;;;;;;5095761;28;20031;-31
2022/03/14 06:05:24;;;;;;;6.18;5.57;;;11.30;75.50;;;;;;5095694;28;20388;-38
2022/03/14 06:07:49;;;;;;;7.20;5.95;;;11.30;75.60;;;;;;5077424;28;20035;-34
2022/03/14 06:10:15;;;;;;;6.68;5.93;;;11.30;75.70;;;;;;5095758;28;20099;-32
2022/03/14 06:12:42;;;;;;;6.57;5.88;;;11.30;75.80;;;;;;5095466;28;20020;-31
2022/03/14 06:15:10;;;;;;;6.40;5.72;;;11.30;75.90;;;;;;5095498;28;20024;-37
2022/03/14 06:17:36;;;;;;;7.20;5.22;;;11.30;75.90;;;;;;5095617;28;20031;-31
2022/03/14 06:20:02;;;;;;;6.63;5.93;;;11.30;75.80;;;;;;5095432;28;20384;-32
2022/03/14 06:22:28;;;;;;;7.97;6.45;;;11.30;76.00;;;;;;5095573;28;20468;-32
2022/03/14 06:24:53;;;;;;;6.65;5.85;;;11.20;76.20;;;;;;5095176;28;20031;-33
2022/03/14 06:27:21;;;;;;;6.78;6.07;;;11.10;76.30;;;;;;5095405;28;20016;-31
2022/03/14 06:29:47;;;;;;;6.03;5.25;;;11.10;76.60;;;;;;5077117;28;20028;-32
2022/03/14 06:32:13;;;;;;;7.38;5.97;;;11.10;76.70;;;;;;5095083;28;20031;-36
2022/03/14 06:34:39;;;;;;;7.05;6.28;;;11.10;76.70;;;;;;5094994;28;20028;-34
2022/03/14 06:37:07;;;;;;;6.65;5.57;;;11.00;76.90;;;;;;5095249;28;20428;-35
2022/03/14 06:39:37;;;;;;;7.10;5.80;;;11.00;76.80;;;;;;5094827;28;20020;-37
2022/03/14 06:42:05;;;;;;;7.50;6.32;;;11.00;76.90;;;;;;5095204;28;20016;-31
2022/03/14 06:44:30;;;;;;;6.97;6.18;;;11.00;77.10;;;;;;5095129;28;20141;-34
2022/03/14 06:46:56;;;;;;;7.38;5.55;;;11.00;77.10;;;;;;5076635;28;20053;-35
2022/03/14 06:49:22;;;;;;;9.60;7.25;;;11.00;77.20;;;;;;5094938;28;20403;-33
2022/03/14 06:51:48;;;;;;;7.88;6.90;;;10.90;77.50;;;;;;5094634;28;20020;-31
2022/03/14 06:54:14;;;;;;;8.30;6.15;;;11.00;77.60;;;;;;5076450;28;20012;-31
2022/03/14 06:56:42;;;;;;;8.93;6.60;;;10.90;77.60;;;;;;5094369;28;20119;-31
2022/03/14 06:59:08;;;;;;;8.32;6.65;;;10.90;77.70;;;;;;5093970;28;20183;-32
2022/03/14 07:01:34;;;;;;;8.15;6.85;;;10.90;77.70;;;;;;5094437;28;20373;-34
2022/03/14 07:04:02;;;;;;;6.95;6.03;;;10.90;77.70;;;;;;5094522;28;20023;-31
2022/03/14 07:06:28;;;;;;;10.05;6.75;;;10.90;77.70;;;;;;5094352;28;20031;-31
2022/03/14 07:08:54;;;;;;;7.75;6.53;;;11.00;77.60;;;;;;5094199;28;20032;-33
2022/03/14 07:11:19;;;;;;;6.63;5.47;;;11.00;77.50;;;;;;5094339;28;20028;-32
2022/03/14 07:13:45;;;;;;;9.82;7.13;;;11.00;77.50;;;;;;5094259;28;20020;-31
2022/03/14 07:16:10;;;;;;;8.13;7.00;;;11.00;77.60;;;;;;5094256;28;20020;-32
2022/03/14 07:18:36;;;;;;;7.40;6.18;;;11.00;77.50;;;;;;5094208;28;20066;-35
2022/03/14 07:21:02;;;;;;;7.85;6.65;;;11.00;77.50;;;;;;5094262;28;20020;-35
2022/03/14 07:23:28;;;;;;;10.25;7.60;;;11.00;77.50;;;;;;5094180;28;20034;-33
2022/03/14 07:25:53;;;;;;;9.18;7.00;;;11.00;77.60;;;;;;5093918;28;20103;-31
2022/03/14 07:28:19;;;;;;;9.25;6.93;;;11.00;77.60;;;;;;5075696;28;20031;-31
2022/03/14 07:30:45;;;;;;;9.60;7.03;;;11.00;77.40;;;;;;5094241;28;20016;-32
2022/03/14 07:33:11;;;;;;;8.60;7.10;;;11.10;77.40;;;;;;5075936;28;20062;-33
2022/03/14 07:35:37;;;;;;;8.77;7.38;;;11.10;77.40;;;;;;5075628;28;20095;-31
2022/03/14 07:38:04;;;;;;;10.70;8.07;;;11.10;77.40;;;;;;5093774;28;20064;-31
2022/03/14 07:40:31;;;;;;;9.63;7.22;;;11.10;77.30;;;;;;5093749;28;20051;-31
2022/03/14 07:42:58;;;;;;;9.25;7.70;;;11.20;77.40;;;;;;5093696;28;20017;-35
2022/03/14 07:45:25;;;;;;;8.82;7.47;;;11.20;77.30;;;;;;5094046;28;20743;-36
2022/03/14 07:47:53;;;;;;;9.98;7.90;;;11.20;77.20;;;;;;5093763;28;20087;-32
2022/03/14 07:50:18;;;;;;;11.77;8.40;;;11.30;77.30;;;;;;5093498;28;20028;-33
2022/03/14 07:52:45;;;;;;;12.15;9.00;;;11.30;77.20;;;;;;5093423;28;20406;-30
2022/03/14 07:55:11;;;;;;;9.98;8.10;;;11.30;77.20;;;;;;5093320;28;20105;-32
2022/03/14 07:57:38;;;;;;;10.50;8.10;;;11.30;77.20;;;;;;5075233;28;20365;-34
2022/03/14 08:00:10;;;;;;;12.85;9.63;;;11.30;77.10;;;;;;5093417;28;20472;-33
2022/03/14 08:02:37;;;;;;;11.40;8.82;;;11.40;77.20;;;;;;5093582;28;20020;-34
2022/03/14 08:05:03;;;;;;;11.55;9.18;;;11.40;77.10;;;;;;5075138;28;20024;-33
2022/03/14 08:07:29;;;;;;;10.85;8.60;;;11.40;77.00;;;;;;5093261;28;20036;-32
2022/03/14 08:09:56;;;;;;;11.57;8.23;;;11.40;76.90;;;;;;5093325;28;20490;-34
2022/03/14 08:12:22;;;;;;;14.77;8.85;;;11.50;77.50;;;;;;5093240;28;20027;-31
2022/03/14 08:14:49;;;;;;;11.80;8.88;;;11.50;76.80;;;;;;5093185;28;20432;-31
2022/03/14 08:17:15;;;;;;;13.13;9.93;;;11.60;76.70;;;;;;5093338;28;20063;-32
2022/03/14 08:19:41;;;;;;;12.30;9.02;;;11.60;76.60;;;;;;5093305;28;20039;-36
2022/03/14 08:22:06;;;;;;;12.57;9.55;;;11.60;76.60;;;;;;5093192;28;20439;-32
2022/03/14 08:24:33;;;;;;;13.30;9.35;;;11.60;76.60;;;;;;5093237;28;20475;-33
2022/03/14 08:26:58;;;;;;;12.50;9.18;;;11.60;76.60;;;;;;5093030;28;20023;-37
2022/03/14 08:29:24;;;;;;;15.48;10.15;;;11.70;76.60;;;;;;5092997;28;20032;-33
2022/03/14 08:31:50;;;;;;;12.82;10.05;;;11.80;76.50;;;;;;5093157;28;20020;-34
2022/03/14 08:34:16;;;;;;;13.25;10.13;;;11.80;76.40;;;;;;5075030;28;20476;-31
2022/03/14 08:36:41;;;;;;;11.68;9.70;;;11.80;76.20;;;;;;5092921;28;20025;-32
2022/03/14 08:39:08;;;;;;;11.30;8.93;;;11.80;76.30;;;;;;5093090;28;20078;-32
2022/03/14 08:41:36;;;;;;;13.60;10.95;;;11.80;76.20;;;;;;5093181;28;20401;-35
2022/03/14 08:44:05;;;;;;;14.60;11.20;;;11.80;76.20;;;;;;5092832;28;20024;-35
2022/03/14 08:46:31;;;;;;;14.68;11.23;;;11.80;76.20;;;;;;5092832;28;20024;-31
2022/03/14 08:48:57;;;;;;;14.98;11.13;;;11.80;76.20;;;;;;5092663;28;20380;-31
2022/03/14 08:51:23;;;;;;;13.38;11.35;;;11.80;76.20;;;;;;5093073;28;20046;-31
2022/03/14 08:53:48;;;;;;;16.45;11.30;;;11.80;76.20;;;;;;5092739;28;20028;-34
2022/03/14 08:56:14;;;;;;;16.67;12.73;;;11.70;76.20;;;;;;5092662;28;20043;-31
2022/03/14 08:58:40;;;;;;;16.85;11.65;;;11.70;76.10;;;;;;5074473;28;20024;-31
2022/03/14 09:01:07;;;;;;;14.88;11.68;;;11.60;76.10;;;;;;5092624;28;20025;-34
2022/03/14 09:03:33;;;;;;;15.40;11.30;;;11.60;76.20;;;;;;5092531;28;20017;-31
2022/03/14 09:05:58;;;;;;;15.88;12.23;;;11.60;76.00;;;;;;5092705;28;20027;-32
2022/03/14 09:08:26;;;;;;;15.18;11.85;;;11.70;76.10;;;;;;5092581;28;20067;-32
2022/03/14 09:10:53;;;;;;;15.05;11.98;;;11.60;76.10;;;;;;5092595;28;20024;-32
2022/03/14 09:13:21;;;;;;;15.48;12.15;;;11.60;76.70;;;;;;5092609;28;20031;-31
2022/03/14 09:15:48;;;;;;;15.85;12.10;;;11.60;76.10;;;;;;5092487;28;20052;-31
2022/03/14 09:18:14;;;;;;;13.98;10.75;;;11.60;76.20;;;;;;5092728;28;20040;-30
2022/03/14 09:20:41;;;;;;;15.77;10.75;;;11.60;76.20;;;;;;5092407;28;20504;-33
2022/03/14 09:23:10;;;;;;;13.88;11.05;;;11.70;76.20;;;;;;5095224;28;20127;-31
2022/03/14 09:25:35;;;;;;;17.02;10.98;;;11.70;76.10;;;;;;5096361;28;20497;-35
2022/03/14 09:28:02;;;;;;;14.65;11.25;;;11.70;76.10;;;;;;5096305;28;20056;-35
2022/03/14 09:30:27;;;;;;;16.55;12.77;;;11.70;76.00;;;;;;5096261;28;20041;-35
2022/03/14 09:32:54;;;;;;;16.70;12.43;;;11.70;76.00;;;;;;5096175;28;20027;-31
2022/03/14 09:35:21;;;;;;;18.02;13.23;;;11.70;76.00;;;;;;5096073;28;20058;-30
2022/03/14 09:37:49;;;;;;;15.75;12.65;;;11.70;76.00;;;;;;5096073;28;20024;-31
2022/03/14 09:40:17;;;;;;;16.33;11.63;;;11.70;75.90;;;;;;5077821;28;20048;-33
2022/03/14 09:42:45;;;;;;;15.85;12.48;;;11.80;76.00;;;;;;5096317;28;20491;-31
2022/03/14 09:45:13;;;;;;;18.27;13.77;;;11.70;75.90;;;;;;5096034;28;20043;-36
2022/03/14 09:47:41;;;;;;;18.23;12.90;;;11.80;75.80;;;;;;5096230;28;20031;-33
2022/03/14 09:50:12;;;;;;;15.45;12.77;;;11.80;75.80;;;;;;5077620;28;20038;-31
2022/03/14 09:52:43;;;;;;;19.30;14.15;;;11.80;75.70;;;;;;5096016;28;20044;-34
2022/03/14 09:55:10;;;;;;;17.92;13.27;;;11.80;75.80;;;;;;5095765;28;20487;-32
2022/03/14 09:57:37;;;;;;;16.83;12.45;;;11.80;75.80;;;;;;5095810;28;20039;-37
2022/03/14 10:00:10;;;;;;;16.90;13.50;;;11.80;75.80;;;;;;5095660;28;20026;-31
2022/03/14 10:02:36;;;;;;;18.30;13.97;;;11.90;75.70;;;;;;5095588;28;20031;-47
2022/03/14 10:05:06;;;;;;;17.63;14.05;;;11.90;75.80;;;;;;5095748;28;20293;-47
2022/03/14 10:07:33;;;;;;;20.83;15.13;;;11.90;75.90;;;;;;5095496;28;20111;-38
2022/03/14 10:09:58;;;;;;;18.15;13.88;;;11.90;75.80;;;;;;5095336;28;20111;-39
2022/03/14 10:12:24;;;;;;;17.23;13.55;;;11.90;75.70;;;;;;5095444;28;20048;-38
2022/03/14 10:14:50;;;;;;;17.48;12.93;;;12.00;75.50;;;;;;5095423;28;20024;-40
2022/03/14 10:17:16;;;;;;;22.67;14.60;;;12.10;75.30;;;;;;5095433;28;20031;-40
2022/03/14 10:19:56;;;;;;;17.83;13.80;;;12.20;75.10;;;;;;5095277;28;20016;-39
2022/03/14 10:22:22;;;;;;;14.75;12.38;;;12.30;75.00;;;;;;5095423;28;20021;-40
2022/03/14 10:24:54;;;;;;;19.17;13.75;;;12.30;74.80;;;;;;5095359;28;20618;-40
2022/03/14 10:27:21;;;;;;;15.85;12.77;;;12.40;74.70;;;;;;5095487;28;20020;-40
2022/03/14 10:29:47;;;;;;;15.35;13.32;;;12.50;74.60;;;;;;5095120;28;20107;-40
2022/03/14 10:35:09;;;;;;;17.48;13.80;;;12.60;74.10;;;;;;5076347;28;20145;-40
2022/03/14 10:37:35;;;;;;;17.73;13.13;;;12.70;74.00;;;;;;5095186;28;20043;-39
2022/03/14 10:40:10;;;;;;;15.73;13.05;;;12.60;73.80;;;;;;5094967;28;20024;-41
2022/03/14 10:42:43;;;;;;;19.13;13.52;;;12.60;73.80;;;;;;5094926;28;20031;-40
2022/03/14 10:45:18;;;;;;;15.30;12.40;;;12.70;73.90;;;;;;5094898;28;20098;-40
2022/03/14 10:47:51;;;;;;;17.42;12.68;;;12.70;73.70;;;;;;5094707;28;20490;-40
2022/03/14 10:50:38;;;;;;;17.52;12.43;;;12.80;73.60;;;;;;5095061;28;20024;-39
2022/03/14 10:53:12;;;;;;;16.40;12.18;;;12.80;73.50;;;;;;5094687;28;20043;-41
2022/03/14 10:55:45;;;;;;;13.98;11.80;;;12.80;73.50;;;;;;5094569;28;20111;-39
2022/03/14 10:58:24;;;;;;;16.83;12.15;;;12.90;73.40;;;;;;5094569;28;20028;-39
2022/03/14 11:00:51;;;;;;;15.82;11.90;;;12.90;73.20;;;;;;5094505;28;20024;-39
2022/03/14 11:03:28;;;;;;;15.20;11.27;;;12.90;73.10;;;;;;5094786;28;20043;-40
2022/03/14 11:06:05;;;;;;;17.95;12.68;;;12.90;73.30;;;;;;5094707;28;20422;-39
2022/03/14 11:08:38;;;;;;;17.23;12.63;;;13.00;73.30;;;;;;5094370;28;20024;-39
2022/03/14 11:11:08;;;;;;;;;;;13.10;73.00;;;;;;5094811;28;20027;-40
2022/03/14 11:13:57;;;;;;;19.42;13.68;;;13.20;72.50;;;;;;5094228;28;19939;-40
2022/03/14 11:16:26;;;;;;;16.48;12.30;;;13.30;71.70;;;;;;5094273;28;20024;-42
2022/03/14 11:18:53;;;;;;;17.33;13.35;;;13.30;71.70;;;;;;5094054;28;20073;-39
2022/03/14 11:21:21;;;;;;;14.52;11.30;;;13.30;71.50;;;;;;5094136;28;20103;-42
2022/03/14 11:23:48;;;;;;;16.77;12.30;;;13.30;71.60;;;;;;5094411;28;20024;-40
2022/03/14 11:26:17;;;;;;;14.73;10.68;;;13.30;71.30;;;;;;5094034;28;20448;-40
2022/03/14 11:28:46;;;;;;;14.38;10.35;;;13.20;71.20;;;;;;5094188;28;20413;-39
2022/03/14 11:31:13;;;;;;;12.63;10.48;;;13.10;71.50;;;;;;5094014;28;20494;-40
2022/03/14 11:33:40;;;;;;;13.75;10.52;;;13.20;71.50;;;;;;5093805;28;20132;-39
2022/03/14 11:36:06;;;;;;;12.38;9.88;;;13.20;71.40;;;;;;5094186;28;20454;-40
2022/03/14 11:38:33;;;;;;;14.80;9.88;;;13.30;71.30;;;;;;5093794;28;20024;-39
2022/03/14 11:40:59;;;;;;;14.68;9.70;;;13.40;71.10;;;;;;5093809;28;20078;-40
2022/03/14 11:43:26;;;;;;;13.60;9.57;;;13.50;70.70;;;;;;5093774;28;20031;-40
2022/03/14 11:45:52;;;;;;;10.32;8.35;;;13.50;70.50;;;;;;5093518;28;20043;-40
2022/03/14 11:48:19;;;;;;;12.13;9.35;;;13.60;70.40;;;;;;5093571;28;20031;-40
2022/03/14 11:51:06;;;;;;;13.45;9.80;;;13.60;70.10;;;;;;5093847;28;20020;-40
2022/03/14 11:53:46;;;;;;;13.43;9.32;;;13.60;69.80;;;;;;5093590;28;20078;-39
2022/03/14 11:56:12;;;;;;;23.92;11.43;;;13.50;69.90;;;;;;5093429;28;20068;-40
2022/03/14 11:58:43;;;;;;;13.90;10.35;;;13.50;69.90;;;;;;5093352;28;20035;-39
2022/03/14 12:01:31;;;;;;;12.38;8.63;;;13.50;69.60;;;;;;5093395;28;20063;-40
2022/03/14 12:03:58;;;;;;;15.43;9.38;;;13.60;69.90;;;;;;5093339;28;20039;-40
2022/03/14 12:06:47;;;;;;;14.32;9.57;;;13.60;69.80;;;;;;5093595;28;20357;-40
2022/03/14 12:09:24;;;;;;;14.82;9.18;;;13.70;69.50;;;;;;5034405;28;20048;-40
2022/03/14 12:11:54;;;;;;;12.32;8.15;;;13.70;69.40;;;;;;5093435;28;20039;-43
2022/03/14 12:14:46;;;;;;;11.52;7.85;;;13.90;69.20;;;;;;5093137;28;20019;-40
2022/03/14 12:17:14;;;;;;;9.90;7.90;;;13.90;68.90;;;;;;5093142;28;20027;-40
2022/03/14 12:19:44;;;;;;;10.80;7.32;;;14.00;68.60;;;;;;5093176;28;20028;-40
2022/03/14 12:22:43;;;;;;;11.13;7.32;;;14.10;68.40;;;;;;5092939;28;20016;-39
2022/03/14 12:25:13;;;;;;;14.90;7.53;;;14.20;68.00;;;;;;5093233;28;20058;-39
2022/03/14 12:27:41;;;;;;;11.15;7.53;;;14.20;67.70;;;;;;5092867;28;20020;-40
2022/03/14 12:30:16;;;;;;;10.98;7.32;;;14.20;67.70;;;;;;5074927;28;20111;-40
2022/03/14 12:32:44;;;;;;;10.43;6.90;;;14.10;67.60;;;;;;5092905;28;20024;-39
2022/03/14 12:35:16;;;;;;;10.50;7.15;;;14.00;67.70;;;;;;5093164;28;20028;-40
2022/03/14 12:37:54;;;;;;;8.43;6.30;;;13.90;68.00;;;;;;5093280;28;20388;-40
2022/03/14 12:40:19;;;;;;;9.25;6.35;;;13.90;68.10;;;;;;5092492;28;20032;-40
2022/03/14 12:42:54;;;;;;;11.27;6.78;;;14.00;68.20;;;;;;5093191;28;20406;-40
2022/03/14 12:45:28;;;;;;;12.10;7.10;;;14.10;68.10;;;;;;5093021;28;20106;-40